Time;durP1;ratioP1;P1;durP2;ratioP2;P2;SDS_P1;SDS_P2;PMS_P1;PMS_P2;Temp;Humidity;BMP_temperature;BMP_pressure;BME280_temperature;BME280_humidity;BME280_pressure;Samples;Min_cycle;Max_cycle;Signal;HPM_P1;HPM_P2
2021/01/25 00:00:57;;;;;;;0.90;0.60;;;1.20;90.50;;;;;;4986593;28;20086;-76
2021/01/25 00:03:23;;;;;;;0.95;0.65;;;1.30;90.50;;;;;;5070321;28;20051;-76
2021/01/25 00:05:48;;;;;;;1.13;0.65;;;1.30;90.50;;;;;;5122926;28;20075;-76
2021/01/25 00:08:14;;;;;;;0.73;0.43;;;1.30;90.50;;;;;;5145598;28;20046;-76
2021/01/25 00:10:40;;;;;;;0.68;0.60;;;1.20;90.40;;;;;;5134543;28;20035;-76
2021/01/25 00:13:05;;;;;;;0.80;0.60;;;1.20;90.40;;;;;;5116621;28;20428;-72
2021/01/25 00:15:31;;;;;;;0.70;0.40;;;1.20;90.40;;;;;;5134523;28;20046;-75
2021/01/25 00:17:57;;;;;;;0.50;0.50;;;1.30;90.40;;;;;;5135149;28;20089;-76
2021/01/25 00:20:22;;;;;;;0.60;0.40;;;1.30;90.40;;;;;;5135270;28;20066;-76
2021/01/25 00:22:48;;;;;;;1.67;0.60;;;1.20;90.40;;;;;;5134405;28;20088;-76
2021/01/25 00:25:14;;;;;;;0.82;0.50;;;1.20;90.40;;;;;;5135521;28;20047;-74
2021/01/25 00:27:40;;;;;;;0.82;0.50;;;1.30;90.40;;;;;;5134382;28;20031;-76
2021/01/25 00:30:06;;;;;;;0.75;0.60;;;1.20;90.40;;;;;;5119842;28;20041;-75
2021/01/25 00:32:32;;;;;;;1.38;0.70;;;1.20;90.40;;;;;;5134913;28;20043;-75
2021/01/25 00:34:57;;;;;;;1.35;0.70;;;1.20;90.40;;;;;;5117220;28;20037;-76
2021/01/25 00:37:23;;;;;;;1.88;0.63;;;1.20;90.40;;;;;;5138406;28;20105;-75
2021/01/25 00:39:49;;;;;;;0.73;0.57;;;1.30;90.40;;;;;;5135544;28;20100;-77
2021/01/25 00:42:15;;;;;;;1.02;0.60;;;1.20;90.40;;;;;;5122516;28;20023;-76
2021/01/25 00:44:40;;;;;;;1.17;0.60;;;1.30;90.40;;;;;;5126403;28;20083;-76
2021/01/25 00:47:06;;;;;;;1.10;0.65;;;1.30;90.40;;;;;;5105284;28;20051;-76
2021/01/25 00:49:32;;;;;;;1.10;0.63;;;1.30;90.40;;;;;;5136764;28;20039;-76
2021/01/25 00:51:58;;;;;;;0.95;0.70;;;1.30;90.40;;;;;;5118952;27;20134;-77
2021/01/25 00:54:23;;;;;;;0.65;0.40;;;1.30;90.30;;;;;;5136341;27;20129;-74
2021/01/25 00:56:49;;;;;;;0.70;0.60;;;1.30;90.30;;;;;;5137579;27;20063;-77
2021/01/25 00:59:15;;;;;;;0.73;0.63;;;1.30;90.30;;;;;;5141915;27;20035;-76
2021/01/25 01:01:41;;;;;;;1.25;0.70;;;1.40;90.30;;;;;;5134637;27;20398;-76
2021/01/25 01:04:07;;;;;;;0.90;0.65;;;1.40;90.30;;;;;;5120382;28;20122;-75
2021/01/25 01:06:33;;;;;;;0.40;0.40;;;1.40;90.30;;;;;;5115989;28;20899;-75
2021/01/25 01:08:58;;;;;;;0.82;0.55;;;1.40;90.30;;;;;;5133552;27;20031;-76
2021/01/25 01:11:25;;;;;;;0.95;0.68;;;1.30;90.30;;;;;;5134016;27;20038;-76
2021/01/25 01:13:50;;;;;;;1.38;0.70;;;1.40;90.30;;;;;;5116653;28;20043;-77
2021/01/25 01:16:16;;;;;;;0.95;0.63;;;1.30;90.30;;;;;;5115293;28;20418;-77
2021/01/25 01:18:42;;;;;;;1.35;0.80;;;1.40;90.30;;;;;;5134369;27;20035;-79
2021/01/25 01:21:08;;;;;;;1.10;0.77;;;1.40;90.30;;;;;;5115788;28;20074;-79
2021/01/25 01:23:33;;;;;;;1.33;0.85;;;1.40;90.30;;;;;;5121512;28;20047;-78
2021/01/25 01:25:59;;;;;;;1.63;0.80;;;1.40;90.30;;;;;;5136256;28;20035;-75
2021/01/25 01:28:25;;;;;;;2.97;1.30;;;1.40;90.30;;;;;;5094629;28;20040;-75
2021/01/25 01:30:50;;;;;;;1.80;1.00;;;1.40;90.30;;;;;;5148282;27;20533;-75
2021/01/25 01:33:16;;;;;;;2.22;1.13;;;1.40;90.30;;;;;;5114803;28;20078;-76
2021/01/25 01:35:42;;;;;;;2.38;1.00;;;1.40;90.30;;;;;;5114796;28;20043;-76
2021/01/25 01:38:07;;;;;;;2.28;1.10;;;1.30;90.30;;;;;;5134256;27;20444;-76
2021/01/25 01:40:33;;;;;;;2.53;0.80;;;1.30;90.30;;;;;;5133243;27;20126;-74
2021/01/25 01:42:59;;;;;;;2.10;1.25;;;1.30;90.40;;;;;;5133168;27;20042;-74
2021/01/25 01:45:25;;;;;;;1.10;0.65;;;1.30;90.40;;;;;;5132879;27;20516;-75
2021/01/25 01:47:50;;;;;;;1.75;0.90;;;1.30;90.40;;;;;;5132910;27;20142;-76
2021/01/25 01:50:16;;;;;;;2.53;1.25;;;1.30;90.40;;;;;;5097825;27;20494;-74
2021/01/25 01:52:42;;;;;;;1.50;0.85;;;1.30;90.40;;;;;;5133766;27;20096;-76
2021/01/25 01:55:09;;;;;;;1.60;0.98;;;1.30;90.40;;;;;;5133603;27;20478;-77
2021/01/25 01:57:37;;;;;;;1.80;1.02;;;1.30;90.40;;;;;;5094249;28;20044;-76
2021/01/25 02:00:08;;;;;;;1.42;0.85;;;1.40;90.40;;;;;;5125162;28;20047;-77
2021/01/25 02:02:34;;;;;;;1.88;1.00;;;1.30;90.70;;;;;;5096203;28;20478;-76
2021/01/25 02:05:00;;;;;;;2.45;1.08;;;1.30;90.40;;;;;;5133643;27;20038;-76
2021/01/25 02:07:27;;;;;;;2.30;1.05;;;1.30;90.40;;;;;;5133371;27;20079;-76
2021/01/25 02:09:54;;;;;;;1.65;0.95;;;1.30;90.40;;;;;;5132870;27;20043;-77
2021/01/25 02:12:20;;;;;;;1.75;1.05;;;1.30;90.40;;;;;;5115235;28;20468;-77
2021/01/25 02:14:47;;;;;;;1.67;0.98;;;1.30;90.40;;;;;;5115526;28;20039;-77
2021/01/25 02:17:15;;;;;;;1.67;1.00;;;1.30;90.40;;;;;;5132628;27;20049;-76
2021/01/25 02:20:04;;;;;;;1.15;0.80;;;1.30;90.40;;;;;;5134545;27;20046;-77
2021/01/25 02:23:08;;;;;;;1.88;1.20;;;1.30;90.40;;;;;;5117685;27;20039;-77
2021/01/25 02:25:48;;;;;;;1.60;1.10;;;1.20;90.40;;;;;;5119429;28;20042;-77
2021/01/25 02:28:14;;;;;;;1.63;0.90;;;1.40;90.40;;;;;;5119229;28;20043;-76
2021/01/25 02:30:40;;;;;;;1.77;1.00;;;1.30;90.40;;;;;;5117488;28;20061;-75
2021/01/25 02:33:08;;;;;;;1.75;1.17;;;1.30;90.40;;;;;;5117538;28;20047;-75
2021/01/25 02:35:35;;;;;;;1.88;1.15;;;1.30;90.40;;;;;;5134110;27;20043;-76
2021/01/25 02:38:01;;;;;;;1.73;0.98;;;1.40;90.40;;;;;;5117315;27;20447;-75
2021/01/25 02:40:29;;;;;;;2.90;1.40;;;1.30;90.40;;;;;;5136151;27;20466;-74
2021/01/25 02:42:56;;;;;;;2.58;1.33;;;1.30;90.40;;;;;;5136189;27;20072;-74
2021/01/25 02:45:24;;;;;;;2.33;1.00;;;1.30;90.40;;;;;;5135883;27;20032;-76
2021/01/25 02:47:51;;;;;;;1.45;1.00;;;1.20;90.40;;;;;;5098519;28;20043;-76
2021/01/25 02:50:17;;;;;;;1.65;0.85;;;1.40;90.40;;;;;;5117352;27;20031;-75
2021/01/25 02:52:43;;;;;;;1.83;1.02;;;1.40;90.40;;;;;;5136091;27;20390;-76
2021/01/25 02:55:09;;;;;;;1.67;1.02;;;1.40;90.40;;;;;;5136237;27;20031;-76
2021/01/25 02:57:37;;;;;;;2.55;1.30;;;1.40;90.50;;;;;;5136129;27;20423;-75
2021/01/25 03:00:06;;;;;;;2.22;1.10;;;1.30;90.40;;;;;;5117771;28;20069;-75
2021/01/25 03:02:33;;;;;;;1.60;1.00;;;1.30;90.50;;;;;;5136081;27;20118;-75
2021/01/25 03:05:02;;;;;;;1.25;0.90;;;1.30;90.50;;;;;;5136182;27;20043;-75
2021/01/25 03:07:28;;;;;;;1.52;0.88;;;1.30;90.50;;;;;;5136123;27;20485;-76
2021/01/25 03:09:58;;;;;;;2.50;1.10;;;1.30;90.50;;;;;;5136206;27;20054;-76
2021/01/25 03:12:24;;;;;;;2.13;1.10;;;1.30;90.50;;;;;;5134571;28;20043;-76
2021/01/25 03:14:50;;;;;;;1.67;0.98;;;1.30;90.50;;;;;;5117745;28;20039;-76
2021/01/25 03:17:15;;;;;;;1.70;0.95;;;1.30;90.50;;;;;;5135957;27;20051;-76
2021/01/25 03:19:41;;;;;;;2.50;1.30;;;1.30;90.50;;;;;;5135774;28;20103;-76
2021/01/25 03:22:07;;;;;;;2.20;1.10;;;1.30;90.50;;;;;;5117550;28;20027;-75
2021/01/25 03:24:32;;;;;;;2.03;1.10;;;1.20;90.50;;;;;;5135482;27;20085;-76
2021/01/25 03:26:58;;;;;;;2.58;1.30;;;1.30;90.50;;;;;;5117461;27;20035;-76
2021/01/25 03:29:24;;;;;;;2.13;1.20;;;1.40;90.60;;;;;;5116783;28;20035;-76
2021/01/25 03:31:50;;;;;;;1.80;0.90;;;1.20;90.50;;;;;;5134778;27;20035;-76
2021/01/25 03:34:15;;;;;;;2.95;1.15;;;1.20;90.50;;;;;;5135147;27;20027;-76
2021/01/25 03:36:41;;;;;;;1.15;1.00;;;1.20;90.60;;;;;;5116598;28;20057;-76
2021/01/25 03:39:07;;;;;;;2.20;1.13;;;1.30;90.60;;;;;;5135115;27;20488;-76
2021/01/25 03:41:33;;;;;;;1.75;1.05;;;1.20;90.50;;;;;;5116485;28;20035;-76
2021/01/25 03:43:59;;;;;;;2.33;1.10;;;1.20;90.60;;;;;;5134836;27;20516;-76
2021/01/25 03:46:25;;;;;;;1.33;0.80;;;1.20;90.60;;;;;;5116580;28;20050;-76
2021/01/25 03:48:50;;;;;;;2.80;1.50;;;1.20;90.60;;;;;;5135143;27;20060;-76
2021/01/25 03:51:18;;;;;;;2.58;1.38;;;1.20;90.60;;;;;;5135058;27;20035;-76
2021/01/25 03:53:46;;;;;;;1.70;0.95;;;1.20;90.60;;;;;;5099714;28;20047;-76
2021/01/25 03:56:12;;;;;;;1.02;0.88;;;1.20;90.60;;;;;;5134850;27;20393;-76
2021/01/25 03:58:37;;;;;;;2.22;1.15;;;1.20;90.60;;;;;;5116347;27;20043;-76
2021/01/25 04:01:03;;;;;;;1.98;1.17;;;1.20;90.60;;;;;;5116508;28;20046;-76
2021/01/25 04:03:29;;;;;;;1.05;0.82;;;1.20;90.60;;;;;;5116897;28;20043;-76
2021/01/25 04:05:55;;;;;;;2.15;1.10;;;1.20;90.60;;;;;;5135300;27;20043;-76
2021/01/25 04:08:20;;;;;;;1.83;1.15;;;1.20;90.50;;;;;;5134961;27;20035;-76
2021/01/25 04:10:46;;;;;;;1.70;1.10;;;1.30;90.60;;;;;;5135103;27;20084;-76
2021/01/25 04:13:12;;;;;;;1.85;1.00;;;1.30;90.60;;;;;;5134413;27;20440;-76
2021/01/25 04:15:38;;;;;;;1.73;1.10;;;1.30;90.50;;;;;;5115943;27;20090;-76
2021/01/25 04:18:03;;;;;;;1.40;0.90;;;1.30;90.50;;;;;;5115990;28;20121;-76
2021/01/25 04:20:29;;;;;;;1.60;0.90;;;1.30;90.50;;;;;;5115789;28;20092;-76
2021/01/25 04:22:55;;;;;;;1.20;0.90;;;1.30;90.50;;;;;;5134231;27;20035;-76
2021/01/25 04:25:20;;;;;;;1.45;0.90;;;1.20;90.50;;;;;;5134246;27;20394;-76
2021/01/25 04:27:46;;;;;;;1.13;0.85;;;1.20;90.80;;;;;;5134268;27;20084;-76
2021/01/25 04:30:13;;;;;;;1.27;0.85;;;1.20;90.50;;;;;;5134130;27;20032;-76
2021/01/25 04:32:39;;;;;;;1.10;0.85;;;1.20;90.50;;;;;;5134233;27;20047;-76
2021/01/25 04:35:07;;;;;;;1.48;0.93;;;1.10;90.50;;;;;;5134374;27;20050;-76
2021/01/25 04:37:33;;;;;;;1.45;0.95;;;1.20;90.60;;;;;;5098587;28;20398;-76
2021/01/25 04:39:58;;;;;;;1.95;1.02;;;1.10;90.60;;;;;;5115675;27;20036;-76
2021/01/25 04:42:25;;;;;;;1.35;0.75;;;1.00;90.60;;;;;;5133036;27;20047;-76
2021/01/25 04:44:51;;;;;;;0.98;0.50;;;1.00;90.70;;;;;;5133564;27;20035;-75
2021/01/25 04:47:21;;;;;;;0.90;0.70;;;0.90;90.70;;;;;;5133880;27;20074;-76
2021/01/25 04:49:49;;;;;;;1.02;0.50;;;0.90;90.70;;;;;;5132426;27;20035;-76
2021/01/25 04:52:16;;;;;;;0.73;0.50;;;1.00;90.80;;;;;;5134032;27;20375;-76
2021/01/25 04:54:43;;;;;;;0.85;0.70;;;0.90;90.80;;;;;;5134451;28;20098;-75
2021/01/25 04:57:10;;;;;;;1.25;0.60;;;0.80;90.80;;;;;;5133917;27;20502;-76
2021/01/25 04:59:36;;;;;;;1.88;0.90;;;0.80;90.90;;;;;;5134330;27;20043;-76
2021/01/25 05:02:02;;;;;;;0.85;0.68;;;0.80;90.90;;;;;;5134048;27;20046;-76
2021/01/25 05:04:28;;;;;;;0.80;0.50;;;0.70;91.20;;;;;;5134411;27;20035;-76
2021/01/25 05:06:54;;;;;;;0.50;0.50;;;0.70;90.90;;;;;;5134582;28;20429;-76
2021/01/25 05:09:20;;;;;;;1.35;0.85;;;0.70;91.00;;;;;;5134492;27;20042;-76
2021/01/25 05:11:56;;;;;;;3.80;1.00;;;0.70;91.00;;;;;;5133804;27;20039;-75
2021/01/25 05:14:22;;;;;;;0.90;0.70;;;0.60;91.00;;;;;;5132987;27;20039;-75
2021/01/25 05:16:48;;;;;;;0.73;0.52;;;0.60;91.00;;;;;;5133629;27;20038;-75
2021/01/25 05:19:13;;;;;;;1.00;0.80;;;0.60;91.00;;;;;;5098379;28;20451;-75
2021/01/25 05:21:45;;;;;;;1.25;0.80;;;0.60;91.00;;;;;;5115493;28;20043;-76
2021/01/25 05:24:13;;;;;;;1.02;0.77;;;0.50;91.00;;;;;;5115633;28;20035;-75
2021/01/25 05:27:00;;;;;;;1.27;0.90;;;0.50;91.00;;;;;;5115092;28;20039;-75
2021/01/25 05:29:27;;;;;;;0.93;0.60;;;0.50;91.10;;;;;;5132447;27;20390;-75
2021/01/25 05:31:54;;;;;;;1.90;1.00;;;0.40;91.00;;;;;;5133813;27;20040;-76
2021/01/25 05:34:20;;;;;;;0.77;0.68;;;0.40;91.00;;;;;;5133532;27;20057;-75
2021/01/25 05:36:47;;;;;;;1.80;0.70;;;0.50;91.10;;;;;;5115770;28;20035;-75
2021/01/25 05:39:14;;;;;;;1.23;0.50;;;0.50;91.10;;;;;;5115601;28;20039;-75
2021/01/25 05:41:51;;;;;;;1.70;0.80;;;0.40;91.10;;;;;;5133521;27;20043;-75
2021/01/25 05:44:17;;;;;;;1.02;0.70;;;0.30;91.10;;;;;;5133294;27;20402;-75
2021/01/25 05:46:42;;;;;;;0.80;0.60;;;0.30;91.10;;;;;;5133812;27;20126;-75
2021/01/25 05:49:08;;;;;;;0.85;0.68;;;0.20;91.10;;;;;;5133790;27;20031;-75
2021/01/25 05:51:34;;;;;;;1.90;0.80;;;0.30;91.10;;;;;;5114591;28;20398;-76
2021/01/25 05:54:02;;;;;;;1.55;0.70;;;0.20;91.10;;;;;;5132717;27;20070;-75
2021/01/25 05:56:29;;;;;;;1.70;0.60;;;0.20;91.10;;;;;;5114666;28;20135;-75
2021/01/25 05:58:55;;;;;;;0.90;0.60;;;0.20;91.10;;;;;;5133130;27;20052;-75
2021/01/25 06:01:22;;;;;;;0.50;0.30;;;0.20;91.10;;;;;;5115092;28;20101;-75
2021/01/25 06:03:49;;;;;;;1.02;0.80;;;0.20;91.10;;;;;;5114587;28;20043;-75
2021/01/25 06:06:34;;;;;;;1.02;0.73;;;0.20;91.10;;;;;;5133296;27;20049;-75
2021/01/25 06:09:14;;;;;;;1.05;0.60;;;0.10;91.10;;;;;;5113439;28;20089;-75
2021/01/25 06:11:45;;;;;;;0.77;0.68;;;0.20;91.10;;;;;;5131255;27;20063;-75
2021/01/25 06:14:22;;;;;;;0.70;0.52;;;0.10;91.10;;;;;;5131230;27;20039;-75
2021/01/25 06:16:50;;;;;;;1.73;0.77;;;0.10;91.10;;;;;;5132191;27;20513;-75
2021/01/25 06:19:19;;;;;;;1.30;0.85;;;0.00;91.00;;;;;;5132735;27;20046;-75
2021/01/25 06:21:47;;;;;;;1.38;0.75;;;0.00;91.10;;;;;;5132749;27;20050;-75
2021/01/25 06:24:15;;;;;;;0.70;0.60;;;0.10;91.10;;;;;;5132776;27;20395;-76
2021/01/25 06:26:41;;;;;;;1.55;1.10;;;0.00;91.10;;;;;;5133217;27;20050;-75
2021/01/25 06:29:08;;;;;;;1.48;0.90;;;0.00;91.10;;;;;;5133277;27;20406;-76
2021/01/25 06:31:37;;;;;;;2.42;1.20;;;0.00;91.10;;;;;;5133174;27;20524;-75
2021/01/25 06:34:05;;;;;;;1.63;0.98;;;0.00;91.10;;;;;;5132628;27;20041;-76
2021/01/25 06:36:33;;;;;;;1.65;0.93;;;-0.10;91.10;;;;;;5133174;27;20168;-75
2021/01/25 06:39:00;;;;;;;1.85;1.00;;;-0.10;91.10;;;;;;5132714;27;20035;-75
2021/01/25 06:41:35;;;;;;;1.80;0.80;;;-0.10;91.10;;;;;;5130779;27;20091;-75
2021/01/25 06:44:02;;;;;;;1.15;0.82;;;-0.10;91.00;;;;;;5112960;28;20035;-75
2021/01/25 06:46:31;;;;;;;0.70;0.60;;;-0.10;91.00;;;;;;5132783;27;20044;-75
2021/01/25 06:48:58;;;;;;;1.52;0.82;;;-0.10;91.00;;;;;;5131050;28;20110;-76
2021/01/25 06:51:24;;;;;;;2.10;0.88;;;-0.10;91.00;;;;;;5132723;28;20033;-75
2021/01/25 06:53:52;;;;;;;1.65;1.00;;;-0.10;91.00;;;;;;5132245;28;20046;-75
2021/01/25 06:56:18;;;;;;;1.45;0.80;;;-0.10;91.10;;;;;;5132360;28;20114;-75
2021/01/25 06:58:49;;;;;;;1.25;0.70;;;-0.20;91.10;;;;;;5111992;28;20059;-76
2021/01/25 07:01:22;;;;;;;0.77;0.68;;;-0.20;91.10;;;;;;5132558;28;20039;-76
2021/01/25 07:03:51;;;;;;;1.98;0.85;;;-0.30;91.10;;;;;;5112280;28;20040;-75
2021/01/25 07:06:17;;;;;;;1.55;0.80;;;-0.30;91.10;;;;;;5133603;27;20035;-75
2021/01/25 07:08:54;;;;;;;1.08;0.70;;;-0.30;91.20;;;;;;5136295;28;20031;-75
2021/01/25 07:11:22;;;;;;;1.25;0.70;;;-0.40;91.20;;;;;;5135454;28;20122;-75
2021/01/25 07:13:49;;;;;;;1.00;0.70;;;-0.40;91.20;;;;;;5135271;28;20447;-75
2021/01/25 07:16:16;;;;;;;1.45;0.85;;;-0.40;91.20;;;;;;5115123;28;20512;-75
2021/01/25 07:18:43;;;;;;;0.85;0.60;;;-0.40;91.20;;;;;;5116631;28;20043;-76
2021/01/25 07:21:14;;;;;;;1.33;0.77;;;-0.50;91.20;;;;;;5135306;28;20394;-75
2021/01/25 07:23:42;;;;;;;1.10;0.60;;;-0.50;91.20;;;;;;5116464;28;20039;-77
2021/01/25 07:26:11;;;;;;;1.08;0.63;;;-0.60;91.20;;;;;;5150398;28;20034;-75
2021/01/25 07:28:37;;;;;;;1.00;0.75;;;-0.60;91.20;;;;;;5111868;28;20108;-76
2021/01/25 07:31:02;;;;;;;0.95;0.70;;;-0.70;91.20;;;;;;5135637;28;20031;-75
2021/01/25 07:33:28;;;;;;;1.13;0.70;;;-0.60;91.30;;;;;;5136043;28;20533;-74
2021/01/25 07:35:54;;;;;;;2.15;1.00;;;-0.70;91.30;;;;;;5116897;28;20122;-75
2021/01/25 07:38:24;;;;;;;1.52;0.93;;;-0.70;91.30;;;;;;5117001;28;20043;-74
2021/01/25 07:40:50;;;;;;;2.03;0.80;;;-0.70;91.30;;;;;;5133527;28;20035;-77
2021/01/25 07:43:18;;;;;;;1.30;0.80;;;-0.70;91.30;;;;;;5116924;28;20123;-77
2021/01/25 07:45:45;;;;;;;1.00;0.65;;;-0.70;91.30;;;;;;5135617;28;20039;-77
2021/01/25 07:48:13;;;;;;;0.52;0.50;;;-0.70;91.30;;;;;;5135567;28;20420;-77
2021/01/25 07:50:39;;;;;;;1.25;0.70;;;-0.70;91.30;;;;;;5098628;28;20027;-78
2021/01/25 07:53:06;;;;;;;1.48;0.88;;;-0.80;91.30;;;;;;5135310;28;20071;-78
2021/01/25 07:55:38;;;;;;;1.77;0.65;;;-0.80;91.30;;;;;;5135034;28;20099;-77
2021/01/25 07:58:12;;;;;;;1.20;0.75;;;-0.70;91.30;;;;;;5133808;28;20035;-78
2021/01/25 08:00:41;;;;;;;1.20;0.80;;;-0.80;91.30;;;;;;5135286;28;20047;-79
2021/01/25 08:03:23;;;;;;;1.17;0.85;;;-0.70;91.30;;;;;;5080979;28;20040;-78
2021/01/25 08:05:51;;;;;;;1.25;0.80;;;-0.70;91.30;;;;;;5115134;28;20042;-78
2021/01/25 08:08:18;;;;;;;0.80;0.70;;;-0.70;91.20;;;;;;5135115;27;20027;-77
2021/01/25 08:10:44;;;;;;;1.83;1.10;;;-0.70;91.20;;;;;;5116307;28;20100;-77
2021/01/25 08:13:17;;;;;;;1.20;0.70;;;-0.70;91.20;;;;;;5117167;28;20043;-78
2021/01/25 08:15:58;;;;;;;1.50;0.80;;;-0.70;91.20;;;;;;5134781;27;20144;-78
2021/01/25 08:18:37;;;;;;;1.63;0.75;;;-0.70;91.20;;;;;;5133266;27;20051;-78
2021/01/25 08:21:04;;;;;;;1.48;0.90;;;-0.70;91.20;;;;;;5139218;27;20042;-79
2021/01/25 08:23:37;;;;;;;1.33;0.82;;;-0.70;91.20;;;;;;5119109;28;20397;-77
2021/01/25 08:26:03;;;;;;;1.17;0.70;;;-0.70;91.20;;;;;;5116540;28;20043;-77
2021/01/25 08:28:33;;;;;;;0.95;0.70;;;-0.70;91.20;;;;;;5135104;27;20031;-77
2021/01/25 08:31:12;;;;;;;1.50;0.75;;;-0.60;91.20;;;;;;5099271;27;20062;-77
2021/01/25 08:33:39;;;;;;;0.93;0.68;;;-0.60;91.20;;;;;;5114064;27;20039;-77
2021/01/25 08:36:07;;;;;;;1.10;0.77;;;-0.50;91.20;;;;;;5134253;27;20436;-78
2021/01/25 08:38:40;;;;;;;1.52;0.90;;;-0.50;91.10;;;;;;5117020;27;20047;-79
2021/01/25 08:41:32;;;;;;;1.27;0.70;;;-0.40;91.10;;;;;;5101628;27;20058;-78
2021/01/25 08:44:00;;;;;;;1.05;0.70;;;-0.50;91.00;;;;;;5117212;27;20122;-80
2021/01/25 08:46:32;;;;;;;1.17;0.70;;;-0.30;91.00;;;;;;5133113;27;20039;-77
2021/01/25 08:49:15;;;;;;;1.10;0.68;;;-0.30;90.90;;;;;;5132970;28;20039;-77
2021/01/25 08:51:42;;;;;;;1.55;0.80;;;-0.30;90.90;;;;;;5134674;28;20035;-77
2021/01/25 08:54:23;;;;;;;1.17;0.63;;;-0.20;90.90;;;;;;5133768;28;20062;-76
2021/01/25 08:56:49;;;;;;;0.98;0.65;;;-0.20;90.80;;;;;;5115229;28;20039;-76
2021/01/25 08:59:30;;;;;;;0.50;0.50;;;-0.20;90.80;;;;;;5133969;28;20454;-77
2021/01/25 09:01:56;;;;;;;0.75;0.52;;;-0.10;90.80;;;;;;5134636;28;20549;-77
2021/01/25 09:04:21;;;;;;;1.45;0.73;;;0.00;90.80;;;;;;5133969;28;20043;-78
2021/01/25 09:06:50;;;;;;;1.33;0.75;;;0.00;90.80;;;;;;5134099;28;20043;-78
2021/01/25 09:09:16;;;;;;;1.20;0.57;;;0.10;90.80;;;;;;5134135;28;20046;-78
2021/01/25 09:11:45;;;;;;;1.08;0.80;;;0.20;90.70;;;;;;5096922;28;20039;-79
2021/01/25 09:14:12;;;;;;;2.40;1.00;;;0.20;90.60;;;;;;5115221;28;20054;-79
2021/01/25 09:16:38;;;;;;;1.20;0.73;;;0.30;90.60;;;;;;5134439;28;20171;-77
2021/01/25 09:19:04;;;;;;;2.53;1.00;;;0.40;90.60;;;;;;5133604;28;20100;-79
2021/01/25 09:21:29;;;;;;;1.60;0.70;;;0.40;90.50;;;;;;5136272;28;20141;-78
2021/01/25 09:27:05;;;;;;;0.93;0.68;;;0.60;90.50;;;;;;5025051;28;20079;-75
2021/01/25 09:29:31;;;;;;;1.35;0.95;;;0.50;90.40;;;;;;5051275;28;20155;-79
2021/01/25 09:31:57;;;;;;;1.38;0.90;;;0.60;90.40;;;;;;5034914;28;20408;-80
2021/01/25 09:34:24;;;;;;;2.17;1.10;;;0.60;90.40;;;;;;5050471;28;20087;-79
2021/01/25 09:36:52;;;;;;;2.67;1.20;;;0.80;90.30;;;;;;5018525;28;20128;-79
2021/01/25 09:39:18;;;;;;;1.95;1.20;;;0.80;90.30;;;;;;5050533;28;20057;-81
2021/01/25 09:41:46;;;;;;;2.60;1.50;;;0.80;90.20;;;;;;5034535;28;20056;-79
2021/01/25 09:44:14;;;;;;;2.40;1.30;;;1.00;90.20;;;;;;5033403;28;20515;-79
2021/01/25 09:46:42;;;;;;;2.53;1.33;;;0.90;90.10;;;;;;5033641;28;20487;-79
2021/01/25 09:49:10;;;;;;;2.78;1.27;;;1.00;90.10;;;;;;5016920;28;20041;-79
2021/01/25 09:51:36;;;;;;;1.90;1.20;;;1.10;90.10;;;;;;5051561;28;20099;-77
2021/01/25 09:54:02;;;;;;;2.38;1.30;;;1.10;90.00;;;;;;5050270;28;20053;-79
2021/01/25 09:56:28;;;;;;;2.25;1.00;;;1.20;90.00;;;;;;5052958;28;20570;-79
2021/01/25 09:58:55;;;;;;;2.63;1.50;;;1.30;90.00;;;;;;5053238;28;20045;-80
2021/01/25 10:01:22;;;;;;;2.50;1.40;;;1.30;90.00;;;;;;5019497;28;20126;-80
2021/01/25 10:03:48;;;;;;;2.15;1.30;;;1.30;90.00;;;;;;5066539;28;20522;-79
2021/01/25 10:06:13;;;;;;;3.10;1.60;;;1.40;90.00;;;;;;5133692;28;20035;-79
2021/01/25 10:08:39;;;;;;;2.75;1.65;;;1.40;89.80;;;;;;5134930;28;20486;-80
2021/01/25 10:11:06;;;;;;;3.80;1.50;;;1.50;89.80;;;;;;5135243;28;20052;-81
2021/01/25 10:13:33;;;;;;;2.97;1.52;;;1.50;89.80;;;;;;5135027;28;20039;-81
2021/01/25 10:15:59;;;;;;;2.33;1.35;;;1.60;89.80;;;;;;5135924;28;20060;-77
2021/01/25 10:18:25;;;;;;;2.22;1.42;;;1.60;89.60;;;;;;5140891;28;20379;-79
2021/01/25 10:20:51;;;;;;;1.88;1.13;;;1.70;89.60;;;;;;5097713;28;20048;-79
2021/01/25 10:23:16;;;;;;;1.98;1.40;;;1.70;89.50;;;;;;5133643;28;20050;-79
2021/01/25 10:25:42;;;;;;;2.78;1.50;;;1.80;89.50;;;;;;5114601;28;20107;-79
2021/01/25 10:28:09;;;;;;;2.95;1.42;;;1.80;89.40;;;;;;5114318;28;20040;-81
2021/01/25 10:30:34;;;;;;;2.20;1.15;;;1.90;89.40;;;;;;5096536;28;20479;-80
2021/01/25 10:33:00;;;;;;;3.50;1.75;;;1.90;89.40;;;;;;5132799;28;20121;-82
2021/01/25 10:35:27;;;;;;;2.45;1.20;;;2.00;89.30;;;;;;5080073;28;20043;-81
2021/01/25 10:37:53;;;;;;;4.38;1.80;;;2.00;89.30;;;;;;5096443;28;20146;-81
2021/01/25 10:43:21;;;;;;;3.42;1.40;;;2.10;89.20;;;;;;5009731;28;20132;-85
2021/01/25 10:49:31;;;;;;;3.13;1.60;;;2.30;89.10;;;;;;4879876;29;20509;-81
2021/01/25 10:51:57;;;;;;;2.80;1.58;;;2.40;89.00;;;;;;4879658;29;20578;-80
2021/01/25 10:54:24;;;;;;;1.40;1.10;;;2.40;88.90;;;;;;4879895;29;20071;-78
2021/01/25 10:56:50;;;;;;;3.88;1.92;;;2.40;88.70;;;;;;4877877;29;20037;-77
2021/01/25 10:59:19;;;;;;;3.17;1.67;;;2.50;88.70;;;;;;4880047;29;20044;-80
2021/01/25 11:01:45;;;;;;;3.50;1.40;;;2.60;88.60;;;;;;4880604;29;20420;-80
2021/01/25 11:04:10;;;;;;;2.75;1.52;;;2.70;88.50;;;;;;4879203;29;20140;-80
2021/01/25 11:06:36;;;;;;;1.85;1.23;;;2.80;88.50;;;;;;4879594;29;20053;-80
2021/01/25 11:09:08;;;;;;;2.88;1.70;;;2.80;88.50;;;;;;4880361;29;20433;-81
2021/01/25 11:11:39;;;;;;;2.70;1.27;;;2.80;88.30;;;;;;4861450;29;20139;-85
2021/01/25 11:14:38;;;;;;;2.88;1.60;;;2.80;88.20;;;;;;4869922;29;20169;-84
2021/01/25 11:17:03;;;;;;;3.72;1.98;;;3.00;88.30;;;;;;4897864;29;20085;-79
2021/01/25 11:19:29;;;;;;;4.70;2.35;;;2.90;88.20;;;;;;4926125;28;20526;-78
2021/01/25 11:21:55;;;;;;;4.35;2.30;;;3.00;88.10;;;;;;4957874;28;20089;-79
2021/01/25 11:24:20;;;;;;;3.55;2.00;;;3.00;88.10;;;;;;4973358;28;20093;-79
2021/01/25 11:26:46;;;;;;;3.70;1.75;;;3.10;88.10;;;;;;5050851;28;20501;-79
2021/01/25 11:29:15;;;;;;;3.83;1.73;;;3.10;88.00;;;;;;5052536;28;20048;-79
2021/01/25 11:31:43;;;;;;;2.70;1.60;;;3.10;88.10;;;;;;5035627;28;20047;-79
2021/01/25 11:34:09;;;;;;;3.92;1.98;;;3.20;88.10;;;;;;5051876;28;20053;-79
2021/01/25 11:36:35;;;;;;;3.85;2.05;;;3.30;88.10;;;;;;5080584;28;20048;-79
2021/01/25 11:39:00;;;;;;;4.35;2.30;;;3.30;88.00;;;;;;5075525;28;20043;-79
2021/01/25 11:41:26;;;;;;;5.28;2.42;;;3.40;88.00;;;;;;5076520;28;20558;-79
2021/01/25 11:43:52;;;;;;;4.78;2.35;;;3.40;87.90;;;;;;5135292;28;20042;-82
2021/01/25 11:46:25;;;;;;;5.75;2.92;;;3.50;87.80;;;;;;5118265;28;20039;-85
2021/01/25 11:48:56;;;;;;;4.88;2.55;;;3.60;87.70;;;;;;5061959;28;20496;-81
2021/01/25 11:51:22;;;;;;;6.80;2.80;;;3.60;87.70;;;;;;5045905;28;20559;-81
2021/01/25 11:53:47;;;;;;;4.88;2.95;;;3.60;87.60;;;;;;5044737;28;20049;-81
2021/01/25 11:56:13;;;;;;;4.93;2.70;;;3.70;87.50;;;;;;5062837;28;20049;-81
2021/01/25 11:58:39;;;;;;;4.88;2.63;;;3.80;87.50;;;;;;5060400;28;20040;-79
2021/01/25 12:01:05;;;;;;;4.07;2.15;;;3.80;87.50;;;;;;5062449;28;20116;-80
2021/01/25 12:03:31;;;;;;;4.57;2.25;;;3.90;87.50;;;;;;5048745;28;20678;-80
2021/01/25 12:05:58;;;;;;;4.18;2.30;;;3.90;87.40;;;;;;5049221;28;20055;-79
2021/01/25 12:08:24;;;;;;;4.25;2.17;;;3.90;87.20;;;;;;5066957;28;20041;-78
2021/01/25 12:10:50;;;;;;;3.50;2.00;;;4.00;87.20;;;;;;5061553;28;20507;-76
2021/01/25 12:13:16;;;;;;;3.60;1.85;;;4.10;87.00;;;;;;5060949;28;20083;-75
2021/01/25 12:15:44;;;;;;;3.47;2.00;;;4.30;86.90;;;;;;5062742;28;20048;-79
2021/01/25 12:18:10;;;;;;;2.50;1.60;;;4.40;86.80;;;;;;5065110;28;20079;-78
2021/01/25 12:20:36;;;;;;;3.50;1.88;;;4.60;86.70;;;;;;5126779;28;20039;-76
2021/01/25 12:23:02;;;;;;;4.00;2.05;;;4.60;86.40;;;;;;5149658;28;20494;-78
2021/01/25 12:25:28;;;;;;;3.95;2.10;;;4.70;86.30;;;;;;5146573;28;20180;-81
2021/01/25 12:27:54;;;;;;;3.67;1.95;;;4.80;86.20;;;;;;5118206;28;20134;-78
2021/01/25 12:30:21;;;;;;;3.10;1.77;;;4.80;86.10;;;;;;5136098;27;20031;-79
2021/01/25 12:32:47;;;;;;;2.88;1.60;;;5.10;86.00;;;;;;5136158;28;20062;-79
2021/01/25 12:35:14;;;;;;;2.88;1.45;;;5.00;85.80;;;;;;5148561;28;20046;-79
2021/01/25 12:37:42;;;;;;;3.13;1.63;;;5.10;85.80;;;;;;5125347;28;20031;-79
2021/01/25 12:40:09;;;;;;;4.88;2.33;;;5.20;85.60;;;;;;5147776;28;20039;-79
2021/01/25 12:42:35;;;;;;;2.80;1.55;;;5.20;85.40;;;;;;5137504;28;20081;-79
2021/01/25 12:45:01;;;;;;;4.47;1.65;;;5.20;85.30;;;;;;5100671;28;20040;-78
2021/01/25 12:47:29;;;;;;;3.35;1.55;;;5.30;85.40;;;;;;5146473;28;20035;-78
2021/01/25 12:49:54;;;;;;;2.63;1.45;;;5.40;85.30;;;;;;5146560;27;20371;-76
2021/01/25 12:52:20;;;;;;;2.30;1.40;;;5.40;85.00;;;;;;5122209;28;20073;-79
2021/01/25 12:54:47;;;;;;;2.03;1.25;;;5.50;85.10;;;;;;5129663;28;20036;-79
2021/01/25 12:57:13;;;;;;;2.40;1.40;;;5.40;84.90;;;;;;5128283;28;20055;-77
2021/01/25 12:59:38;;;;;;;2.00;1.30;;;5.60;85.00;;;;;;5148270;28;20039;-76
2021/01/25 13:02:05;;;;;;;3.65;1.77;;;5.60;84.60;;;;;;5140339;28;20035;-76
2021/01/25 13:04:30;;;;;;;3.38;1.95;;;5.70;84.80;;;;;;5144884;27;20036;-78
2021/01/25 13:06:56;;;;;;;2.95;1.70;;;5.70;84.70;;;;;;5153965;27;20504;-75